sensor_id;sensor_type;location;lat;lon;timestamp;P1;durP1;ratioP1;P2;durP2;ratioP2
60416;SDS011;46263;44.726;10.396;2024-02-15T00:01:57;25.88;;;13.50;;
60416;SDS011;46263;44.726;10.396;2024-02-15T00:04:22;76.50;;;30.40;;
60416;SDS011;46263;44.726;10.396;2024-02-15T00:06:48;35.17;;;14.38;;
60416;SDS011;46263;44.726;10.396;2024-02-15T00:09:14;30.50;;;13.75;;
60416;SDS011;46263;44.726;10.396;2024-02-15T00:11:39;16.95;;;8.35;;
60416;SDS011;46263;44.726;10.396;2024-02-15T00:14:05;16.25;;;8.27;;
60416;SDS011;46263;44.726;10.396;2024-02-15T00:16:30;15.80;;;7.18;;
60416;SDS011;46263;44.726;10.396;2024-02-15T00:18:58;14.88;;;6.63;;
60416;SDS011;46263;44.726;10.396;2024-02-15T00:21:24;11.10;;;6.18;;
60416;SDS011;46263;44.726;10.396;2024-02-15T00:23:50;8.90;;;5.10;;
60416;SDS011;46263;44.726;10.396;2024-02-15T00:26:15;12.45;;;5.85;;
60416;SDS011;46263;44.726;10.396;2024-02-15T00:28:41;13.00;;;6.43;;
60416;SDS011;46263;44.726;10.396;2024-02-15T00:31:07;13.95;;;6.60;;
60416;SDS011;46263;44.726;10.396;2024-02-15T00:33:33;10.15;;;5.80;;
60416;SDS011;46263;44.726;10.396;2024-02-15T00:36:02;8.88;;;5.88;;
60416;SDS011;46263;44.726;10.396;2024-02-15T00:38:29;10.70;;;6.10;;
60416;SDS011;46263;44.726;10.396;2024-02-15T00:40:56;11.75;;;5.75;;
60416;SDS011;46263;44.726;10.396;2024-02-15T00:43:21;9.98;;;5.47;;
60416;SDS011;46263;44.726;10.396;2024-02-15T00:45:47;14.55;;;6.22;;
60416;SDS011;46263;44.726;10.396;2024-02-15T00:48:12;10.18;;;6.05;;
60416;SDS011;46263;44.726;10.396;2024-02-15T00:50:38;12.77;;;6.22;;
60416;SDS011;46263;44.726;10.396;2024-02-15T00:53:03;12.32;;;6.28;;
60416;SDS011;46263;44.726;10.396;2024-02-15T00:55:29;9.90;;;5.88;;
60416;SDS011;46263;44.726;10.396;2024-02-15T00:57:55;10.90;;;6.57;;
60416;SDS011;46263;44.726;10.396;2024-02-15T01:00:21;13.20;;;6.13;;
60416;SDS011;46263;44.726;10.396;2024-02-15T01:02:46;9.15;;;5.57;;
60416;SDS011;46263;44.726;10.396;2024-02-15T01:05:12;10.60;;;6.53;;
60416;SDS011;46263;44.726;10.396;2024-02-15T01:07:40;9.52;;;5.88;;
60416;SDS011;46263;44.726;10.396;2024-02-15T01:10:06;13.10;;;6.47;;
60416;SDS011;46263;44.726;10.396;2024-02-15T01:12:32;15.88;;;6.82;;
60416;SDS011;46263;44.726;10.396;2024-02-15T01:14:58;11.13;;;5.45;;
60416;SDS011;46263;44.726;10.396;2024-02-15T01:17:24;13.38;;;5.85;;
60416;SDS011;46263;44.726;10.396;2024-02-15T01:19:49;9.88;;;5.95;;
60416;SDS011;46263;44.726;10.396;2024-02-15T01:22:15;10.15;;;5.68;;
60416;SDS011;46263;44.726;10.396;2024-02-15T01:24:41;11.82;;;6.07;;
60416;SDS011;46263;44.726;10.396;2024-02-15T01:27:07;11.77;;;6.00;;
60416;SDS011;46263;44.726;10.396;2024-02-15T01:29:33;10.75;;;5.65;;
60416;SDS011;46263;44.726;10.396;2024-02-15T01:32:00;12.05;;;6.13;;
60416;SDS011;46263;44.726;10.396;2024-02-15T01:34:27;14.07;;;6.05;;
60416;SDS011;46263;44.726;10.396;2024-02-15T01:36:53;12.95;;;6.15;;
60416;SDS011;46263;44.726;10.396;2024-02-15T01:39:18;12.88;;;5.55;;
60416;SDS011;46263;44.726;10.396;2024-02-15T01:41:47;12.13;;;5.88;;
60416;SDS011;46263;44.726;10.396;2024-02-15T01:44:13;8.63;;;5.20;;
60416;SDS011;46263;44.726;10.396;2024-02-15T01:46:39;10.02;;;6.35;;
60416;SDS011;46263;44.726;10.396;2024-02-15T01:49:05;10.07;;;5.90;;
60416;SDS011;46263;44.726;10.396;2024-02-15T01:51:33;9.23;;;5.20;;
60416;SDS011;46263;44.726;10.396;2024-02-15T01:54:00;10.98;;;5.28;;
60416;SDS011;46263;44.726;10.396;2024-02-15T01:56:27;12.50;;;5.70;;
60416;SDS011;46263;44.726;10.396;2024-02-15T01:58:53;9.50;;;5.25;;
60416;SDS011;46263;44.726;10.396;2024-02-15T02:01:19;11.57;;;5.53;;
60416;SDS011;46263;44.726;10.396;2024-02-15T02:03:46;6.95;;;4.60;;
60416;SDS011;46263;44.726;10.396;2024-02-15T02:06:11;7.65;;;4.93;;
60416;SDS011;46263;44.726;10.396;2024-02-15T02:08:39;6.28;;;3.92;;
60416;SDS011;46263;44.726;10.396;2024-02-15T02:11:04;7.22;;;4.38;;
60416;SDS011;46263;44.726;10.396;2024-02-15T02:13:30;8.20;;;4.45;;
60416;SDS011;46263;44.726;10.396;2024-02-15T02:15:56;8.63;;;4.68;;
60416;SDS011;46263;44.726;10.396;2024-02-15T02:18:22;10.77;;;4.88;;
60416;SDS011;46263;44.726;10.396;2024-02-15T02:20:50;8.52;;;4.97;;
60416;SDS011;46263;44.726;10.396;2024-02-15T02:23:16;7.38;;;4.72;;
60416;SDS011;46263;44.726;10.396;2024-02-15T02:25:45;7.45;;;4.97;;
60416;SDS011;46263;44.726;10.396;2024-02-15T02:28:14;8.90;;;4.88;;
60416;SDS011;46263;44.726;10.396;2024-02-15T02:30:41;7.57;;;4.72;;
60416;SDS011;46263;44.726;10.396;2024-02-15T02:33:11;10.63;;;4.53;;
60416;SDS011;46263;44.726;10.396;2024-02-15T02:35:43;10.40;;;4.95;;
60416;SDS011;46263;44.726;10.396;2024-02-15T02:38:09;8.57;;;4.80;;
60416;SDS011;46263;44.726;10.396;2024-02-15T02:40:35;12.23;;;5.93;;
60416;SDS011;46263;44.726;10.396;2024-02-15T02:43:01;11.15;;;5.43;;
60416;SDS011;46263;44.726;10.396;2024-02-15T02:45:26;9.27;;;4.80;;
60416;SDS011;46263;44.726;10.396;2024-02-15T02:47:52;6.22;;;4.22;;
60416;SDS011;46263;44.726;10.396;2024-02-15T02:50:19;7.88;;;4.47;;
60416;SDS011;46263;44.726;10.396;2024-02-15T02:52:46;9.00;;;4.15;;
60416;SDS011;46263;44.726;10.396;2024-02-15T02:55:13;9.85;;;4.65;;
60416;SDS011;46263;44.726;10.396;2024-02-15T02:57:39;5.43;;;3.75;;
60416;SDS011;46263;44.726;10.396;2024-02-15T03:00:05;7.07;;;4.10;;
60416;SDS011;46263;44.726;10.396;2024-02-15T03:02:34;8.90;;;4.30;;
60416;SDS011;46263;44.726;10.396;2024-02-15T03:05:02;5.10;;;3.67;;
60416;SDS011;46263;44.726;10.396;2024-02-15T03:07:29;5.30;;;3.58;;
60416;SDS011;46263;44.726;10.396;2024-02-15T03:09:54;8.15;;;3.72;;
60416;SDS011;46263;44.726;10.396;2024-02-15T03:12:20;6.97;;;3.58;;
60416;SDS011;46263;44.726;10.396;2024-02-15T03:14:45;6.55;;;3.25;;
60416;SDS011;46263;44.726;10.396;2024-02-15T03:17:11;4.80;;;3.10;;
60416;SDS011;46263;44.726;10.396;2024-02-15T03:19:36;5.57;;;2.88;;
60416;SDS011;46263;44.726;10.396;2024-02-15T03:22:02;7.03;;;3.40;;
60416;SDS011;46263;44.726;10.396;2024-02-15T03:24:27;9.75;;;4.03;;
60416;SDS011;46263;44.726;10.396;2024-02-15T03:26:53;5.32;;;3.53;;
60416;SDS011;46263;44.726;10.396;2024-02-15T03:29:20;7.88;;;3.30;;
60416;SDS011;46263;44.726;10.396;2024-02-15T03:31:46;7.40;;;3.38;;
60416;SDS011;46263;44.726;10.396;2024-02-15T03:34:13;7.35;;;3.85;;
60416;SDS011;46263;44.726;10.396;2024-02-15T03:36:40;8.57;;;5.07;;
60416;SDS011;46263;44.726;10.396;2024-02-15T03:39:06;9.70;;;4.70;;
60416;SDS011;46263;44.726;10.396;2024-02-15T03:41:33;10.43;;;4.68;;
60416;SDS011;46263;44.726;10.396;2024-02-15T03:43:59;7.82;;;3.95;;
60416;SDS011;46263;44.726;10.396;2024-02-15T03:46:25;8.00;;;4.13;;
60416;SDS011;46263;44.726;10.396;2024-02-15T03:48:52;8.80;;;4.45;;
60416;SDS011;46263;44.726;10.396;2024-02-15T03:51:18;7.28;;;3.67;;
60416;SDS011;46263;44.726;10.396;2024-02-15T03:53:45;6.32;;;3.72;;
60416;SDS011;46263;44.726;10.396;2024-02-15T03:56:12;7.43;;;3.70;;
60416;SDS011;46263;44.726;10.396;2024-02-15T03:58:38;7.45;;;3.40;;
60416;SDS011;46263;44.726;10.396;2024-02-15T04:01:04;7.97;;;3.40;;
60416;SDS011;46263;44.726;10.396;2024-02-15T04:03:35;7.13;;;3.58;;
60416;SDS011;46263;44.726;10.396;2024-02-15T04:06:01;5.65;;;3.72;;
60416;SDS011;46263;44.726;10.396;2024-02-15T04:08:26;6.85;;;3.50;;
60416;SDS011;46263;44.726;10.396;2024-02-15T04:10:52;6.25;;;2.72;;
60416;SDS011;46263;44.726;10.396;2024-02-15T04:13:18;4.75;;;3.15;;
60416;SDS011;46263;44.726;10.396;2024-02-15T04:15:44;9.30;;;2.97;;
60416;SDS011;46263;44.726;10.396;2024-02-15T04:18:12;4.13;;;2.50;;
60416;SDS011;46263;44.726;10.396;2024-02-15T04:20:39;8.00;;;2.60;;
60416;SDS011;46263;44.726;10.396;2024-02-15T04:23:10;5.20;;;2.63;;
60416;SDS011;46263;44.726;10.396;2024-02-15T04:25:36;7.15;;;2.80;;
60416;SDS011;46263;44.726;10.396;2024-02-15T04:28:01;6.63;;;2.72;;
60416;SDS011;46263;44.726;10.396;2024-02-15T04:30:29;4.53;;;2.63;;
60416;SDS011;46263;44.726;10.396;2024-02-15T04:32:55;6.25;;;3.22;;
60416;SDS011;46263;44.726;10.396;2024-02-15T04:35:21;5.63;;;2.88;;
60416;SDS011;46263;44.726;10.396;2024-02-15T04:37:47;5.47;;;3.55;;
60416;SDS011;46263;44.726;10.396;2024-02-15T04:40:14;14.15;;;6.07;;
60416;SDS011;46263;44.726;10.396;2024-02-15T04:42:42;17.25;;;6.10;;
60416;SDS011;46263;44.726;10.396;2024-02-15T04:45:10;15.23;;;6.55;;
60416;SDS011;46263;44.726;10.396;2024-02-15T04:47:38;14.90;;;5.90;;
60416;SDS011;46263;44.726;10.396;2024-02-15T04:50:06;12.05;;;6.25;;
60416;SDS011;46263;44.726;10.396;2024-02-15T04:52:32;16.20;;;6.63;;
60416;SDS011;46263;44.726;10.396;2024-02-15T04:54:58;17.52;;;7.07;;
60416;SDS011;46263;44.726;10.396;2024-02-15T04:57:26;18.98;;;8.05;;
60416;SDS011;46263;44.726;10.396;2024-02-15T04:59:53;23.27;;;8.80;;
60416;SDS011;46263;44.726;10.396;2024-02-15T05:02:19;23.27;;;8.65;;
60416;SDS011;46263;44.726;10.396;2024-02-15T05:04:47;11.70;;;5.43;;
60416;SDS011;46263;44.726;10.396;2024-02-15T05:07:12;12.90;;;5.65;;
60416;SDS011;46263;44.726;10.396;2024-02-15T05:09:42;6.88;;;4.45;;
60416;SDS011;46263;44.726;10.396;2024-02-15T05:12:08;8.20;;;4.53;;
60416;SDS011;46263;44.726;10.396;2024-02-15T05:14:33;8.90;;;4.85;;
60416;SDS011;46263;44.726;10.396;2024-02-15T05:17:01;14.82;;;5.30;;
60416;SDS011;46263;44.726;10.396;2024-02-15T05:19:27;15.63;;;5.40;;
60416;SDS011;46263;44.726;10.396;2024-02-15T05:21:52;4.75;;;3.40;;
60416;SDS011;46263;44.726;10.396;2024-02-15T05:24:19;9.05;;;3.22;;
60416;SDS011;46263;44.726;10.396;2024-02-15T05:26:44;5.28;;;2.70;;
60416;SDS011;46263;44.726;10.396;2024-02-15T05:29:16;7.05;;;3.33;;
60416;SDS011;46263;44.726;10.396;2024-02-15T05:31:42;3.83;;;2.47;;
60416;SDS011;46263;44.726;10.396;2024-02-15T05:34:07;6.05;;;2.97;;
60416;SDS011;46263;44.726;10.396;2024-02-15T05:36:39;4.22;;;2.63;;
60416;SDS011;46263;44.726;10.396;2024-02-15T05:39:05;6.82;;;2.63;;
60416;SDS011;46263;44.726;10.396;2024-02-15T05:41:31;4.20;;;2.65;;
60416;SDS011;46263;44.726;10.396;2024-02-15T05:43:59;5.38;;;2.35;;
60416;SDS011;46263;44.726;10.396;2024-02-15T05:46:25;5.53;;;2.35;;
60416;SDS011;46263;44.726;10.396;2024-02-15T05:48:53;3.42;;;2.33;;
60416;SDS011;46263;44.726;10.396;2024-02-15T05:51:18;5.75;;;2.28;;
60416;SDS011;46263;44.726;10.396;2024-02-15T05:53:44;4.07;;;2.53;;
60416;SDS011;46263;44.726;10.396;2024-02-15T05:56:10;4.13;;;2.80;;
60416;SDS011;46263;44.726;10.396;2024-02-15T05:58:37;4.78;;;2.58;;
60416;SDS011;46263;44.726;10.396;2024-02-15T06:01:04;4.15;;;2.45;;
60416;SDS011;46263;44.726;10.396;2024-02-15T06:03:32;5.15;;;2.88;;
60416;SDS011;46263;44.726;10.396;2024-02-15T06:05:59;4.88;;;2.67;;
60416;SDS011;46263;44.726;10.396;2024-02-15T06:08:27;4.13;;;2.80;;
60416;SDS011;46263;44.726;10.396;2024-02-15T06:10:56;6.00;;;2.35;;
60416;SDS011;46263;44.726;10.396;2024-02-15T06:13:22;7.45;;;2.35;;
60416;SDS011;46263;44.726;10.396;2024-02-15T06:15:49;5.25;;;2.72;;
60416;SDS011;46263;44.726;10.396;2024-02-15T06:18:24;3.03;;;2.25;;
60416;SDS011;46263;44.726;10.396;2024-02-15T06:20:52;4.90;;;2.78;;
60416;SDS011;46263;44.726;10.396;2024-02-15T06:23:18;5.88;;;3.03;;
60416;SDS011;46263;44.726;10.396;2024-02-15T06:25:44;12.63;;;4.22;;
60416;SDS011;46263;44.726;10.396;2024-02-15T06:28:12;17.20;;;6.97;;
60416;SDS011;46263;44.726;10.396;2024-02-15T06:30:44;17.77;;;7.30;;
60416;SDS011;46263;44.726;10.396;2024-02-15T06:33:29;13.35;;;6.22;;
60416;SDS011;46263;44.726;10.396;2024-02-15T06:36:13;9.18;;;5.40;;
60416;SDS011;46263;44.726;10.396;2024-02-15T06:38:58;12.75;;;5.38;;
60416;SDS011;46263;44.726;10.396;2024-02-15T06:41:42;9.27;;;4.65;;
60416;SDS011;46263;44.726;10.396;2024-02-15T06:44:08;25.50;;;8.85;;
60416;SDS011;46263;44.726;10.396;2024-02-15T06:46:34;10.85;;;5.88;;
60416;SDS011;46263;44.726;10.396;2024-02-15T06:49:00;8.23;;;4.07;;
60416;SDS011;46263;44.726;10.396;2024-02-15T06:51:26;5.13;;;3.25;;
60416;SDS011;46263;44.726;10.396;2024-02-15T06:53:51;4.85;;;3.25;;
60416;SDS011;46263;44.726;10.396;2024-02-15T06:56:20;3.97;;;2.83;;
60416;SDS011;46263;44.726;10.396;2024-02-15T06:58:46;5.82;;;3.15;;
60416;SDS011;46263;44.726;10.396;2024-02-15T07:01:13;5.70;;;2.50;;
60416;SDS011;46263;44.726;10.396;2024-02-15T07:03:41;5.45;;;3.47;;
60416;SDS011;46263;44.726;10.396;2024-02-15T07:06:09;6.32;;;3.13;;
60416;SDS011;46263;44.726;10.396;2024-02-15T07:08:35;8.07;;;3.45;;
60416;SDS011;46263;44.726;10.396;2024-02-15T07:11:00;3.35;;;2.67;;
60416;SDS011;46263;44.726;10.396;2024-02-15T07:13:29;3.08;;;2.50;;
60416;SDS011;46263;44.726;10.396;2024-02-15T07:15:54;4.35;;;2.67;;
60416;SDS011;46263;44.726;10.396;2024-02-15T07:18:20;6.90;;;3.60;;
60416;SDS011;46263;44.726;10.396;2024-02-15T07:20:47;6.50;;;2.85;;
60416;SDS011;46263;44.726;10.396;2024-02-15T07:23:13;3.85;;;2.55;;
60416;SDS011;46263;44.726;10.396;2024-02-15T07:25:39;8.35;;;3.20;;
60416;SDS011;46263;44.726;10.396;2024-02-15T07:28:06;6.00;;;2.95;;
60416;SDS011;46263;44.726;10.396;2024-02-15T07:30:33;5.60;;;2.60;;
60416;SDS011;46263;44.726;10.396;2024-02-15T07:32:59;3.85;;;2.55;;
60416;SDS011;46263;44.726;10.396;2024-02-15T07:35:25;5.13;;;2.80;;
60416;SDS011;46263;44.726;10.396;2024-02-15T07:37:51;4.50;;;2.60;;
60416;SDS011;46263;44.726;10.396;2024-02-15T07:40:22;7.45;;;2.30;;
60416;SDS011;46263;44.726;10.396;2024-02-15T07:42:48;5.25;;;2.95;;
60416;SDS011;46263;44.726;10.396;2024-02-15T07:45:14;3.85;;;2.50;;
60416;SDS011;46263;44.726;10.396;2024-02-15T07:47:40;4.15;;;3.00;;
60416;SDS011;46263;44.726;10.396;2024-02-15T07:50:05;5.05;;;2.42;;
60416;SDS011;46263;44.726;10.396;2024-02-15T07:52:34;5.00;;;2.33;;
60416;SDS011;46263;44.726;10.396;2024-02-15T07:55:00;3.67;;;2.20;;
60416;SDS011;46263;44.726;10.396;2024-02-15T07:59:59;5.72;;;2.42;;
60416;SDS011;46263;44.726;10.396;2024-02-15T08:02:25;3.83;;;2.58;;
60416;SDS011;46263;44.726;10.396;2024-02-15T08:04:53;2.83;;;2.15;;
60416;SDS011;46263;44.726;10.396;2024-02-15T08:07:19;6.82;;;2.20;;
60416;SDS011;46263;44.726;10.396;2024-02-15T08:09:46;2.45;;;2.25;;
60416;SDS011;46263;44.726;10.396;2024-02-15T08:12:12;2.40;;;2.20;;
60416;SDS011;46263;44.726;10.396;2024-02-15T08:14:37;6.05;;;2.22;;
60416;SDS011;46263;44.726;10.396;2024-02-15T08:17:05;3.88;;;2.30;;
60416;SDS011;46263;44.726;10.396;2024-02-15T08:19:33;3.90;;;2.55;;
60416;SDS011;46263;44.726;10.396;2024-02-15T08:22:05;4.47;;;2.40;;
60416;SDS011;46263;44.726;10.396;2024-02-15T08:24:31;4.82;;;2.58;;
60416;SDS011;46263;44.726;10.396;2024-02-15T08:26:56;5.13;;;2.75;;
60416;SDS011;46263;44.726;10.396;2024-02-15T08:29:24;4.75;;;2.30;;
60416;SDS011;46263;44.726;10.396;2024-02-15T08:31:50;4.55;;;2.75;;
60416;SDS011;46263;44.726;10.396;2024-02-15T08:34:16;3.33;;;2.97;;
60416;SDS011;46263;44.726;10.396;2024-02-15T08:36:44;5.72;;;2.63;;
60416;SDS011;46263;44.726;10.396;2024-02-15T08:39:09;10.52;;;3.03;;
60416;SDS011;46263;44.726;10.396;2024-02-15T08:41:39;7.75;;;3.65;;
60416;SDS011;46263;44.726;10.396;2024-02-15T08:44:05;7.05;;;3.60;;
60416;SDS011;46263;44.726;10.396;2024-02-15T08:46:36;4.65;;;3.60;;
60416;SDS011;46263;44.726;10.396;2024-02-15T08:49:02;5.70;;;3.95;;
60416;SDS011;46263;44.726;10.396;2024-02-15T08:51:28;5.40;;;3.50;;
60416;SDS011;46263;44.726;10.396;2024-02-15T08:53:55;9.95;;;4.35;;
60416;SDS011;46263;44.726;10.396;2024-02-15T08:56:21;5.10;;;4.60;;
60416;SDS011;46263;44.726;10.396;2024-02-15T08:58:48;8.65;;;4.63;;
60416;SDS011;46263;44.726;10.396;2024-02-15T09:01:14;8.57;;;4.90;;
60416;SDS011;46263;44.726;10.396;2024-02-15T09:03:40;10.20;;;4.82;;
60416;SDS011;46263;44.726;10.396;2024-02-15T09:06:05;7.72;;;5.20;;
60416;SDS011;46263;44.726;10.396;2024-02-15T09:08:33;9.25;;;4.90;;
60416;SDS011;46263;44.726;10.396;2024-02-15T09:10:59;7.80;;;4.65;;
60416;SDS011;46263;44.726;10.396;2024-02-15T09:13:25;7.20;;;5.07;;
60416;SDS011;46263;44.726;10.396;2024-02-15T09:15:50;9.93;;;5.50;;
60416;SDS011;46263;44.726;10.396;2024-02-15T09:18:16;12.25;;;5.55;;
60416;SDS011;46263;44.726;10.396;2024-02-15T09:20:48;9.60;;;4.68;;
60416;SDS011;46263;44.726;10.396;2024-02-15T09:23:19;7.57;;;4.40;;
60416;SDS011;46263;44.726;10.396;2024-02-15T09:25:45;9.07;;;5.63;;
60416;SDS011;46263;44.726;10.396;2024-02-15T09:28:10;8.20;;;4.80;;
60416;SDS011;46263;44.726;10.396;2024-02-15T09:30:36;10.93;;;5.50;;
60416;SDS011;46263;44.726;10.396;2024-02-15T09:33:02;6.05;;;4.93;;
60416;SDS011;46263;44.726;10.396;2024-02-15T09:35:31;10.35;;;5.97;;
60416;SDS011;46263;44.726;10.396;2024-02-15T09:37:57;12.18;;;5.82;;
60416;SDS011;46263;44.726;10.396;2024-02-15T09:40:23;15.57;;;7.10;;
60416;SDS011;46263;44.726;10.396;2024-02-15T09:42:51;12.27;;;6.90;;
60416;SDS011;46263;44.726;10.396;2024-02-15T09:45:18;13.75;;;7.90;;
60416;SDS011;46263;44.726;10.396;2024-02-15T09:47:46;11.18;;;7.38;;
60416;SDS011;46263;44.726;10.396;2024-02-15T09:50:15;14.32;;;8.38;;
60416;SDS011;46263;44.726;10.396;2024-02-15T09:52:48;15.32;;;8.85;;
60416;SDS011;46263;44.726;10.396;2024-02-15T09:57:45;15.45;;;8.65;;
60416;SDS011;46263;44.726;10.396;2024-02-15T10:00:12;16.83;;;9.43;;
60416;SDS011;46263;44.726;10.396;2024-02-15T10:02:42;17.42;;;9.57;;
60416;SDS011;46263;44.726;10.396;2024-02-15T10:05:11;20.95;;;10.45;;
60416;SDS011;46263;44.726;10.396;2024-02-15T10:07:38;18.10;;;10.40;;
60416;SDS011;46263;44.726;10.396;2024-02-15T10:12:44;18.45;;;10.20;;
60416;SDS011;46263;44.726;10.396;2024-02-15T10:15:10;23.42;;;12.98;;
60416;SDS011;46263;44.726;10.396;2024-02-15T10:17:35;19.80;;;11.43;;
60416;SDS011;46263;44.726;10.396;2024-02-15T10:20:05;20.63;;;12.10;;
60416;SDS011;46263;44.726;10.396;2024-02-15T10:22:31;26.45;;;11.77;;
60416;SDS011;46263;44.726;10.396;2024-02-15T10:25:10;22.67;;;12.80;;
60416;SDS011;46263;44.726;10.396;2024-02-15T10:27:37;21.02;;;12.80;;
60416;SDS011;46263;44.726;10.396;2024-02-15T10:30:21;23.48;;;13.50;;
60416;SDS011;46263;44.726;10.396;2024-02-15T10:32:48;23.85;;;13.20;;
60416;SDS011;46263;44.726;10.396;2024-02-15T10:35:20;25.75;;;12.88;;
60416;SDS011;46263;44.726;10.396;2024-02-15T10:37:47;24.95;;;13.65;;
60416;SDS011;46263;44.726;10.396;2024-02-15T10:40:18;25.30;;;13.30;;
60416;SDS011;46263;44.726;10.396;2024-02-15T10:42:47;23.85;;;13.25;;
60416;SDS011;46263;44.726;10.396;2024-02-15T10:45:14;23.67;;;14.23;;
60416;SDS011;46263;44.726;10.396;2024-02-15T10:47:46;28.50;;;12.95;;
60416;SDS011;46263;44.726;10.396;2024-02-15T10:50:15;22.83;;;13.82;;
60416;SDS011;46263;44.726;10.396;2024-02-15T10:52:44;21.55;;;11.88;;
60416;SDS011;46263;44.726;10.396;2024-02-15T10:58:10;21.92;;;12.88;;
60416;SDS011;46263;44.726;10.396;2024-02-15T11:00:42;20.25;;;12.75;;
60416;SDS011;46263;44.726;10.396;2024-02-15T11:03:12;25.95;;;13.70;;
60416;SDS011;46263;44.726;10.396;2024-02-15T11:05:56;23.70;;;12.27;;
60416;SDS011;46263;44.726;10.396;2024-02-15T11:08:25;24.65;;;13.65;;
60416;SDS011;46263;44.726;10.396;2024-02-15T11:10:52;21.75;;;13.55;;
60416;SDS011;46263;44.726;10.396;2024-02-15T11:13:21;22.88;;;12.52;;
60416;SDS011;46263;44.726;10.396;2024-02-15T11:15:46;27.40;;;14.23;;
60416;SDS011;46263;44.726;10.396;2024-02-15T11:21:10;23.48;;;13.32;;
60416;SDS011;46263;44.726;10.396;2024-02-15T11:23:35;22.73;;;13.55;;
60416;SDS011;46263;44.726;10.396;2024-02-15T11:26:01;20.50;;;13.27;;
60416;SDS011;46263;44.726;10.396;2024-02-15T11:30:56;23.75;;;13.60;;
60416;SDS011;46263;44.726;10.396;2024-02-15T11:33:30;23.30;;;12.88;;
60416;SDS011;46263;44.726;10.396;2024-02-15T11:38:40;21.58;;;12.70;;
60416;SDS011;46263;44.726;10.396;2024-02-15T11:41:08;22.17;;;12.40;;
60416;SDS011;46263;44.726;10.396;2024-02-15T11:46:19;19.27;;;12.40;;
60416;SDS011;46263;44.726;10.396;2024-02-15T11:48:46;22.33;;;12.82;;
60416;SDS011;46263;44.726;10.396;2024-02-15T11:51:28;22.45;;;12.68;;
60416;SDS011;46263;44.726;10.396;2024-02-15T11:54:06;23.63;;;13.10;;
60416;SDS011;46263;44.726;10.396;2024-02-15T11:56:49;22.92;;;13.40;;
60416;SDS011;46263;44.726;10.396;2024-02-15T11:59:42;22.73;;;13.10;;
60416;SDS011;46263;44.726;10.396;2024-02-15T12:02:26;23.92;;;13.27;;
60416;SDS011;46263;44.726;10.396;2024-02-15T12:05:11;20.70;;;13.25;;
60416;SDS011;46263;44.726;10.396;2024-02-15T12:07:55;26.38;;;13.40;;
60416;SDS011;46263;44.726;10.396;2024-02-15T12:10:57;22.70;;;13.07;;
60416;SDS011;46263;44.726;10.396;2024-02-15T12:13:42;23.45;;;14.02;;
60416;SDS011;46263;44.726;10.396;2024-02-15T12:16:28;23.38;;;13.85;;
60416;SDS011;46263;44.726;10.396;2024-02-15T12:19:12;24.10;;;13.45;;
60416;SDS011;46263;44.726;10.396;2024-02-15T12:21:37;23.33;;;14.00;;
60416;SDS011;46263;44.726;10.396;2024-02-15T12:24:06;25.98;;;14.57;;
60416;SDS011;46263;44.726;10.396;2024-02-15T12:26:32;23.63;;;14.48;;
60416;SDS011;46263;44.726;10.396;2024-02-15T12:28:59;24.65;;;14.10;;
60416;SDS011;46263;44.726;10.396;2024-02-15T12:31:26;25.50;;;15.00;;
60416;SDS011;46263;44.726;10.396;2024-02-15T12:34:02;26.23;;;15.05;;
60416;SDS011;46263;44.726;10.396;2024-02-15T12:36:32;24.20;;;14.07;;
60416;SDS011;46263;44.726;10.396;2024-02-15T12:39:01;22.17;;;13.98;;
60416;SDS011;46263;44.726;10.396;2024-02-15T12:41:35;22.60;;;13.73;;
60416;SDS011;46263;44.726;10.396;2024-02-15T12:44:05;23.58;;;13.70;;
60416;SDS011;46263;44.726;10.396;2024-02-15T12:46:33;28.80;;;15.02;;
60416;SDS011;46263;44.726;10.396;2024-02-15T12:51:40;27.15;;;15.23;;
60416;SDS011;46263;44.726;10.396;2024-02-15T12:54:15;27.05;;;14.18;;
60416;SDS011;46263;44.726;10.396;2024-02-15T12:56:46;29.80;;;14.75;;
60416;SDS011;46263;44.726;10.396;2024-02-15T12:59:14;23.83;;;14.82;;
60416;SDS011;46263;44.726;10.396;2024-02-15T13:01:40;27.98;;;17.15;;
60416;SDS011;46263;44.726;10.396;2024-02-15T13:04:05;26.80;;;14.68;;
60416;SDS011;46263;44.726;10.396;2024-02-15T13:06:33;29.02;;;15.93;;
60416;SDS011;46263;44.726;10.396;2024-02-15T13:09:01;26.40;;;15.63;;
60416;SDS011;46263;44.726;10.396;2024-02-15T13:11:28;28.17;;;16.02;;
60416;SDS011;46263;44.726;10.396;2024-02-15T13:13:54;28.73;;;16.95;;
60416;SDS011;46263;44.726;10.396;2024-02-15T13:16:20;25.23;;;15.48;;
60416;SDS011;46263;44.726;10.396;2024-02-15T13:18:48;27.33;;;16.80;;
60416;SDS011;46263;44.726;10.396;2024-02-15T13:21:14;29.52;;;17.05;;
60416;SDS011;46263;44.726;10.396;2024-02-15T13:23:39;29.63;;;15.95;;
60416;SDS011;46263;44.726;10.396;2024-02-15T13:26:05;29.10;;;16.90;;
60416;SDS011;46263;44.726;10.396;2024-02-15T13:28:33;27.55;;;16.88;;
60416;SDS011;46263;44.726;10.396;2024-02-15T13:30:58;30.10;;;16.85;;
60416;SDS011;46263;44.726;10.396;2024-02-15T13:33:24;31.17;;;15.63;;
60416;SDS011;46263;44.726;10.396;2024-02-15T13:35:51;29.15;;;16.23;;
60416;SDS011;46263;44.726;10.396;2024-02-15T13:38:17;31.42;;;17.65;;
60416;SDS011;46263;44.726;10.396;2024-02-15T13:40:47;30.23;;;16.23;;
60416;SDS011;46263;44.726;10.396;2024-02-15T13:43:16;28.13;;;16.40;;
60416;SDS011;46263;44.726;10.396;2024-02-15T13:45:43;38.65;;;18.20;;
60416;SDS011;46263;44.726;10.396;2024-02-15T13:48:09;30.58;;;16.85;;
60416;SDS011;46263;44.726;10.396;2024-02-15T13:50:38;32.70;;;17.75;;
60416;SDS011;46263;44.726;10.396;2024-02-15T13:53:04;27.45;;;16.00;;
60416;SDS011;46263;44.726;10.396;2024-02-15T13:55:30;28.58;;;16.23;;
60416;SDS011;46263;44.726;10.396;2024-02-15T13:57:56;33.15;;;17.38;;
60416;SDS011;46263;44.726;10.396;2024-02-15T14:00:22;27.15;;;15.40;;
60416;SDS011;46263;44.726;10.396;2024-02-15T14:02:51;27.42;;;15.65;;
60416;SDS011;46263;44.726;10.396;2024-02-15T14:05:22;31.30;;;16.70;;
60416;SDS011;46263;44.726;10.396;2024-02-15T14:07:55;30.77;;;16.13;;
60416;SDS011;46263;44.726;10.396;2024-02-15T14:10:24;24.20;;;14.93;;
60416;SDS011;46263;44.726;10.396;2024-02-15T14:12:54;28.60;;;15.27;;
60416;SDS011;46263;44.726;10.396;2024-02-15T14:15:23;25.23;;;15.27;;
60416;SDS011;46263;44.726;10.396;2024-02-15T14:17:49;26.92;;;15.85;;
60416;SDS011;46263;44.726;10.396;2024-02-15T14:20:15;30.48;;;15.27;;
60416;SDS011;46263;44.726;10.396;2024-02-15T14:22:45;31.25;;;15.90;;
60416;SDS011;46263;44.726;10.396;2024-02-15T14:27:40;28.42;;;15.85;;
60416;SDS011;46263;44.726;10.396;2024-02-15T14:30:07;32.08;;;16.33;;
60416;SDS011;46263;44.726;10.396;2024-02-15T14:32:52;30.17;;;16.75;;
60416;SDS011;46263;44.726;10.396;2024-02-15T14:35:33;35.55;;;17.77;;
60416;SDS011;46263;44.726;10.396;2024-02-15T14:38:01;33.90;;;18.58;;
60416;SDS011;46263;44.726;10.396;2024-02-15T14:40:37;29.60;;;17.20;;
60416;SDS011;46263;44.726;10.396;2024-02-15T14:43:03;31.17;;;18.27;;
60416;SDS011;46263;44.726;10.396;2024-02-15T14:45:36;30.70;;;18.02;;
60416;SDS011;46263;44.726;10.396;2024-02-15T14:48:01;32.97;;;19.05;;
60416;SDS011;46263;44.726;10.396;2024-02-15T14:50:31;35.40;;;18.38;;
60416;SDS011;46263;44.726;10.396;2024-02-15T14:52:56;31.67;;;17.80;;
60416;SDS011;46263;44.726;10.396;2024-02-15T14:55:22;32.40;;;18.25;;